sensor_id;sensor_type;location;lat;lon;timestamp;P1;durP1;ratioP1;P2;durP2;ratioP2
22814;SDS011;11574;51.058;13.712;2024-02-21T00:01:14;16.77;;;3.17;;
22814;SDS011;11574;51.058;13.712;2024-02-21T00:06:16;13.00;;;3.07;;
22814;SDS011;11574;51.058;13.712;2024-02-21T00:11:20;12.27;;;2.70;;
22814;SDS011;11574;51.058;13.712;2024-02-21T00:16:22;15.07;;;3.10;;
22814;SDS011;11574;51.058;13.712;2024-02-21T00:21:25;10.07;;;2.67;;
22814;SDS011;11574;51.058;13.712;2024-02-21T00:26:28;11.43;;;2.80;;
22814;SDS011;11574;51.058;13.712;2024-02-21T00:31:30;12.27;;;2.90;;
22814;SDS011;11574;51.058;13.712;2024-02-21T00:36:33;10.50;;;2.30;;
22814;SDS011;11574;51.058;13.712;2024-02-21T00:41:36;10.37;;;2.80;;
22814;SDS011;11574;51.058;13.712;2024-02-21T00:46:38;8.13;;;2.10;;
22814;SDS011;11574;51.058;13.712;2024-02-21T00:51:41;8.00;;;2.60;;
22814;SDS011;11574;51.058;13.712;2024-02-21T00:56:44;11.43;;;2.53;;
22814;SDS011;11574;51.058;13.712;2024-02-21T01:01:46;11.73;;;2.50;;
22814;SDS011;11574;51.058;13.712;2024-02-21T01:06:49;13.37;;;2.80;;
22814;SDS011;11574;51.058;13.712;2024-02-21T01:11:52;12.60;;;2.90;;
22814;SDS011;11574;51.058;13.712;2024-02-21T01:16:55;14.73;;;2.70;;
22814;SDS011;11574;51.058;13.712;2024-02-21T01:21:57;10.17;;;2.83;;
22814;SDS011;11574;51.058;13.712;2024-02-21T01:27:00;13.80;;;3.30;;
22814;SDS011;11574;51.058;13.712;2024-02-21T01:32:03;15.47;;;2.90;;
22814;SDS011;11574;51.058;13.712;2024-02-21T01:37:05;13.27;;;2.90;;
22814;SDS011;11574;51.058;13.712;2024-02-21T01:42:09;12.37;;;2.67;;
22814;SDS011;11574;51.058;13.712;2024-02-21T01:47:11;12.20;;;2.97;;
22814;SDS011;11574;51.058;13.712;2024-02-21T01:52:14;14.57;;;3.03;;
22814;SDS011;11574;51.058;13.712;2024-02-21T01:57:19;13.13;;;2.67;;
22814;SDS011;11574;51.058;13.712;2024-02-21T02:02:21;12.57;;;3.80;;
22814;SDS011;11574;51.058;13.712;2024-02-21T02:07:24;16.83;;;3.90;;
22814;SDS011;11574;51.058;13.712;2024-02-21T02:12:27;11.77;;;3.10;;
22814;SDS011;11574;51.058;13.712;2024-02-21T02:17:30;9.97;;;2.90;;
22814;SDS011;11574;51.058;13.712;2024-02-21T02:22:32;10.93;;;3.20;;
22814;SDS011;11574;51.058;13.712;2024-02-21T02:27:42;13.60;;;3.37;;
22814;SDS011;11574;51.058;13.712;2024-02-21T02:32:45;14.10;;;2.53;;
22814;SDS011;11574;51.058;13.712;2024-02-21T02:37:48;12.00;;;2.73;;
22814;SDS011;11574;51.058;13.712;2024-02-21T02:42:51;17.33;;;4.20;;
22814;SDS011;11574;51.058;13.712;2024-02-21T02:47:55;12.83;;;2.67;;
22814;SDS011;11574;51.058;13.712;2024-02-21T02:52:57;14.40;;;3.10;;
22814;SDS011;11574;51.058;13.712;2024-02-21T02:58:01;12.67;;;3.03;;
22814;SDS011;11574;51.058;13.712;2024-02-21T03:03:03;13.87;;;3.87;;
22814;SDS011;11574;51.058;13.712;2024-02-21T03:08:06;15.30;;;3.40;;
22814;SDS011;11574;51.058;13.712;2024-02-21T03:13:09;17.43;;;3.10;;
22814;SDS011;11574;51.058;13.712;2024-02-21T03:18:11;15.63;;;3.23;;
22814;SDS011;11574;51.058;13.712;2024-02-21T03:23:14;6.93;;;2.70;;
22814;SDS011;11574;51.058;13.712;2024-02-21T03:28:17;14.73;;;3.03;;
22814;SDS011;11574;51.058;13.712;2024-02-21T03:33:20;19.53;;;3.97;;
22814;SDS011;11574;51.058;13.712;2024-02-21T03:38:23;17.77;;;3.23;;
22814;SDS011;11574;51.058;13.712;2024-02-21T03:43:27;12.63;;;3.33;;
22814;SDS011;11574;51.058;13.712;2024-02-21T03:48:29;16.17;;;3.10;;
22814;SDS011;11574;51.058;13.712;2024-02-21T03:53:31;14.07;;;3.27;;
22814;SDS011;11574;51.058;13.712;2024-02-21T03:58:35;18.07;;;2.67;;
22814;SDS011;11574;51.058;13.712;2024-02-21T04:03:37;12.00;;;2.97;;
22814;SDS011;11574;51.058;13.712;2024-02-21T04:08:39;13.60;;;3.80;;
22814;SDS011;11574;51.058;13.712;2024-02-21T04:13:43;15.27;;;3.00;;
22814;SDS011;11574;51.058;13.712;2024-02-21T04:18:48;14.43;;;2.83;;
22814;SDS011;11574;51.058;13.712;2024-02-21T04:23:50;11.67;;;3.07;;
22814;SDS011;11574;51.058;13.712;2024-02-21T04:28:54;12.70;;;3.10;;
22814;SDS011;11574;51.058;13.712;2024-02-21T04:33:56;11.57;;;3.03;;
22814;SDS011;11574;51.058;13.712;2024-02-21T04:38:58;12.07;;;3.33;;
22814;SDS011;11574;51.058;13.712;2024-02-21T04:44:02;9.40;;;2.93;;
22814;SDS011;11574;51.058;13.712;2024-02-21T04:49:05;7.00;;;2.50;;
22814;SDS011;11574;51.058;13.712;2024-02-21T04:54:07;5.87;;;2.33;;
22814;SDS011;11574;51.058;13.712;2024-02-21T04:59:10;13.13;;;2.70;;
22814;SDS011;11574;51.058;13.712;2024-02-21T05:04:13;13.03;;;2.90;;
22814;SDS011;11574;51.058;13.712;2024-02-21T05:09:15;17.87;;;3.07;;
22814;SDS011;11574;51.058;13.712;2024-02-21T05:14:19;12.33;;;2.87;;
22814;SDS011;11574;51.058;13.712;2024-02-21T05:19:21;14.83;;;3.63;;
22814;SDS011;11574;51.058;13.712;2024-02-21T05:24:23;11.00;;;3.00;;
22814;SDS011;11574;51.058;13.712;2024-02-21T05:29:27;15.40;;;3.27;;
22814;SDS011;11574;51.058;13.712;2024-02-21T05:34:29;15.27;;;3.47;;
22814;SDS011;11574;51.058;13.712;2024-02-21T05:39:31;9.73;;;2.50;;
22814;SDS011;11574;51.058;13.712;2024-02-21T05:44:35;14.27;;;3.23;;
22814;SDS011;11574;51.058;13.712;2024-02-21T05:49:37;19.20;;;3.40;;
22814;SDS011;11574;51.058;13.712;2024-02-21T05:54:39;11.70;;;3.20;;
22814;SDS011;11574;51.058;13.712;2024-02-21T05:59:43;10.13;;;3.20;;
22814;SDS011;11574;51.058;13.712;2024-02-21T06:04:45;10.50;;;2.70;;
22814;SDS011;11574;51.058;13.712;2024-02-21T06:09:47;11.03;;;3.30;;
22814;SDS011;11574;51.058;13.712;2024-02-21T06:14:51;13.87;;;3.20;;
22814;SDS011;11574;51.058;13.712;2024-02-21T06:19:53;16.70;;;4.00;;
22814;SDS011;11574;51.058;13.712;2024-02-21T06:24:56;14.33;;;3.53;;
22814;SDS011;11574;51.058;13.712;2024-02-21T06:29:59;8.57;;;3.00;;
22814;SDS011;11574;51.058;13.712;2024-02-21T06:35:03;10.03;;;3.00;;
22814;SDS011;11574;51.058;13.712;2024-02-21T06:40:06;11.23;;;3.07;;
22814;SDS011;11574;51.058;13.712;2024-02-21T06:45:10;11.80;;;2.67;;
22814;SDS011;11574;51.058;13.712;2024-02-21T06:50:13;13.93;;;3.37;;
22814;SDS011;11574;51.058;13.712;2024-02-21T06:55:15;11.90;;;3.63;;
22814;SDS011;11574;51.058;13.712;2024-02-21T07:00:19;8.50;;;2.87;;
22814;SDS011;11574;51.058;13.712;2024-02-21T07:05:21;8.80;;;3.10;;
22814;SDS011;11574;51.058;13.712;2024-02-21T07:10:23;11.27;;;3.20;;
22814;SDS011;11574;51.058;13.712;2024-02-21T07:15:29;11.77;;;3.07;;
22814;SDS011;11574;51.058;13.712;2024-02-21T07:20:31;10.93;;;3.17;;
22814;SDS011;11574;51.058;13.712;2024-02-21T07:25:36;13.67;;;3.13;;
22814;SDS011;11574;51.058;13.712;2024-02-21T07:30:41;7.60;;;2.97;;
22814;SDS011;11574;51.058;13.712;2024-02-21T07:35:43;11.07;;;3.10;;
22814;SDS011;11574;51.058;13.712;2024-02-21T07:40:45;9.73;;;2.70;;
22814;SDS011;11574;51.058;13.712;2024-02-21T07:45:49;11.70;;;3.17;;
22814;SDS011;11574;51.058;13.712;2024-02-21T07:50:51;12.63;;;2.60;;
22814;SDS011;11574;51.058;13.712;2024-02-21T07:55:53;12.03;;;2.97;;
22814;SDS011;11574;51.058;13.712;2024-02-21T08:01:07;16.63;;;2.97;;
22814;SDS011;11574;51.058;13.712;2024-02-21T08:06:11;20.83;;;3.63;;
22814;SDS011;11574;51.058;13.712;2024-02-21T08:11:13;16.70;;;3.10;;
22814;SDS011;11574;51.058;13.712;2024-02-21T08:16:17;10.93;;;3.03;;
22814;SDS011;11574;51.058;13.712;2024-02-21T08:21:19;10.97;;;3.30;;
22814;SDS011;11574;51.058;13.712;2024-02-21T08:26:21;10.30;;;3.03;;
22814;SDS011;11574;51.058;13.712;2024-02-21T08:31:25;11.60;;;3.53;;
22814;SDS011;11574;51.058;13.712;2024-02-21T08:36:32;19.53;;;3.40;;
22814;SDS011;11574;51.058;13.712;2024-02-21T08:41:35;16.30;;;3.33;;
22814;SDS011;11574;51.058;13.712;2024-02-21T08:46:38;8.40;;;3.00;;
22814;SDS011;11574;51.058;13.712;2024-02-21T08:51:41;12.70;;;3.33;;
22814;SDS011;11574;51.058;13.712;2024-02-21T08:56:43;22.33;;;3.77;;
22814;SDS011;11574;51.058;13.712;2024-02-21T09:01:47;22.00;;;4.40;;
22814;SDS011;11574;51.058;13.712;2024-02-21T09:06:49;21.60;;;4.23;;
22814;SDS011;11574;51.058;13.712;2024-02-21T09:11:52;31.17;;;5.63;;
22814;SDS011;11574;51.058;13.712;2024-02-21T09:16:56;10.50;;;3.27;;
22814;SDS011;11574;51.058;13.712;2024-02-21T09:21:58;10.83;;;3.53;;
22814;SDS011;11574;51.058;13.712;2024-02-21T09:27:01;12.40;;;2.83;;
22814;SDS011;11574;51.058;13.712;2024-02-21T09:32:07;9.93;;;3.00;;
22814;SDS011;11574;51.058;13.712;2024-02-21T09:37:09;10.63;;;2.80;;
22814;SDS011;11574;51.058;13.712;2024-02-21T09:42:13;18.70;;;3.87;;
22814;SDS011;11574;51.058;13.712;2024-02-21T09:47:19;9.70;;;3.23;;
22814;SDS011;11574;51.058;13.712;2024-02-21T09:52:21;13.63;;;3.00;;
22814;SDS011;11574;51.058;13.712;2024-02-21T09:57:24;12.77;;;3.37;;
22814;SDS011;11574;51.058;13.712;2024-02-21T10:02:28;17.73;;;3.53;;
22814;SDS011;11574;51.058;13.712;2024-02-21T10:07:30;25.77;;;3.67;;
22814;SDS011;11574;51.058;13.712;2024-02-21T10:12:34;17.73;;;3.07;;
22814;SDS011;11574;51.058;13.712;2024-02-21T10:17:40;10.27;;;3.20;;
22814;SDS011;11574;51.058;13.712;2024-02-21T10:22:43;15.83;;;3.50;;
22814;SDS011;11574;51.058;13.712;2024-02-21T10:27:45;11.53;;;2.83;;
22814;SDS011;11574;51.058;13.712;2024-02-21T10:32:53;29.87;;;4.73;;
22814;SDS011;11574;51.058;13.712;2024-02-21T10:37:55;23.90;;;5.03;;
22814;SDS011;11574;51.058;13.712;2024-02-21T10:42:58;58.97;;;5.43;;
22814;SDS011;11574;51.058;13.712;2024-02-21T10:48:06;13.80;;;3.90;;
22814;SDS011;11574;51.058;13.712;2024-02-21T10:53:14;12.20;;;3.13;;
22814;SDS011;11574;51.058;13.712;2024-02-21T10:58:19;9.90;;;2.83;;
22814;SDS011;11574;51.058;13.712;2024-02-21T11:03:23;9.90;;;2.40;;
22814;SDS011;11574;51.058;13.712;2024-02-21T11:08:25;7.17;;;2.37;;
22814;SDS011;11574;51.058;13.712;2024-02-21T11:13:31;9.00;;;2.80;;
22814;SDS011;11574;51.058;13.712;2024-02-21T11:18:38;10.80;;;2.63;;
22814;SDS011;11574;51.058;13.712;2024-02-21T11:23:40;10.43;;;2.60;;
22814;SDS011;11574;51.058;13.712;2024-02-21T11:28:42;7.93;;;2.93;;
22814;SDS011;11574;51.058;13.712;2024-02-21T11:33:46;6.43;;;2.23;;
22814;SDS011;11574;51.058;13.712;2024-02-21T11:38:49;6.50;;;2.70;;
22814;SDS011;11574;51.058;13.712;2024-02-21T11:43:52;8.83;;;2.60;;
22814;SDS011;11574;51.058;13.712;2024-02-21T11:48:55;6.57;;;2.57;;
22814;SDS011;11574;51.058;13.712;2024-02-21T11:54:00;8.87;;;2.67;;
22814;SDS011;11574;51.058;13.712;2024-02-21T11:59:02;11.70;;;2.97;;
22814;SDS011;11574;51.058;13.712;2024-02-21T12:04:08;6.93;;;2.27;;
22814;SDS011;11574;51.058;13.712;2024-02-21T12:09:10;7.00;;;2.73;;
22814;SDS011;11574;51.058;13.712;2024-02-21T12:14:16;8.77;;;2.27;;
22814;SDS011;11574;51.058;13.712;2024-02-21T12:19:20;11.77;;;2.70;;
22814;SDS011;11574;51.058;13.712;2024-02-21T12:24:25;7.43;;;2.23;;
22814;SDS011;11574;51.058;13.712;2024-02-21T12:29:27;32.83;;;5.87;;
22814;SDS011;11574;51.058;13.712;2024-02-21T12:34:31;6.77;;;2.23;;
22814;SDS011;11574;51.058;13.712;2024-02-21T12:39:34;10.00;;;2.40;;
22814;SDS011;11574;51.058;13.712;2024-02-21T12:44:38;5.27;;;2.27;;
22814;SDS011;11574;51.058;13.712;2024-02-21T12:49:43;7.00;;;2.50;;
22814;SDS011;11574;51.058;13.712;2024-02-21T12:54:45;11.03;;;2.80;;
22814;SDS011;11574;51.058;13.712;2024-02-21T12:59:48;13.77;;;2.60;;
22814;SDS011;11574;51.058;13.712;2024-02-21T13:04:52;7.00;;;2.37;;
22814;SDS011;11574;51.058;13.712;2024-02-21T13:09:54;8.97;;;2.33;;
22814;SDS011;11574;51.058;13.712;2024-02-21T13:14:57;12.53;;;2.57;;
22814;SDS011;11574;51.058;13.712;2024-02-21T13:20:00;7.37;;;2.30;;
22814;SDS011;11574;51.058;13.712;2024-02-21T13:25:03;6.67;;;2.23;;
22814;SDS011;11574;51.058;13.712;2024-02-21T13:30:07;7.37;;;2.60;;
22814;SDS011;11574;51.058;13.712;2024-02-21T13:35:11;7.70;;;2.60;;
22814;SDS011;11574;51.058;13.712;2024-02-21T13:40:14;12.03;;;3.20;;
22814;SDS011;11574;51.058;13.712;2024-02-21T13:45:16;13.83;;;2.83;;
22814;SDS011;11574;51.058;13.712;2024-02-21T13:50:21;9.07;;;2.83;;
22814;SDS011;11574;51.058;13.712;2024-02-21T13:55:24;12.47;;;4.10;;
22814;SDS011;11574;51.058;13.712;2024-02-21T14:00:26;8.97;;;2.40;;
22814;SDS011;11574;51.058;13.712;2024-02-21T14:05:30;6.07;;;2.50;;
22814;SDS011;11574;51.058;13.712;2024-02-21T14:10:32;8.77;;;2.43;;
22814;SDS011;11574;51.058;13.712;2024-02-21T14:15:35;7.40;;;2.40;;
22814;SDS011;11574;51.058;13.712;2024-02-21T14:20:42;5.20;;;2.17;;
22814;SDS011;11574;51.058;13.712;2024-02-21T14:25:47;6.50;;;2.40;;
22814;SDS011;11574;51.058;13.712;2024-02-21T14:30:50;7.87;;;2.87;;
22814;SDS011;11574;51.058;13.712;2024-02-21T14:35:58;11.43;;;3.13;;
22814;SDS011;11574;51.058;13.712;2024-02-21T14:41:01;7.73;;;2.43;;
22814;SDS011;11574;51.058;13.712;2024-02-21T14:46:03;8.67;;;2.43;;
22814;SDS011;11574;51.058;13.712;2024-02-21T14:51:07;12.60;;;2.90;;
22814;SDS011;11574;51.058;13.712;2024-02-21T14:56:12;9.17;;;2.67;;
22814;SDS011;11574;51.058;13.712;2024-02-21T15:01:15;2.70;;;1.97;;
22814;SDS011;11574;51.058;13.712;2024-02-21T15:06:19;8.03;;;2.47;;
22814;SDS011;11574;51.058;13.712;2024-02-21T15:11:22;11.17;;;2.87;;
22814;SDS011;11574;51.058;13.712;2024-02-21T15:16:24;13.23;;;2.60;;
22814;SDS011;11574;51.058;13.712;2024-02-21T15:21:27;10.37;;;2.30;;
22814;SDS011;11574;51.058;13.712;2024-02-21T15:26:30;7.00;;;2.33;;
22814;SDS011;11574;51.058;13.712;2024-02-21T15:31:33;8.57;;;2.63;;
22814;SDS011;11574;51.058;13.712;2024-02-21T15:36:36;7.47;;;2.50;;
22814;SDS011;11574;51.058;13.712;2024-02-21T15:41:38;7.97;;;3.07;;
22814;SDS011;11574;51.058;13.712;2024-02-21T15:46:41;12.73;;;3.00;;
22814;SDS011;11574;51.058;13.712;2024-02-21T15:51:44;10.03;;;2.60;;
22814;SDS011;11574;51.058;13.712;2024-02-21T15:56:47;11.20;;;2.60;;
22814;SDS011;11574;51.058;13.712;2024-02-21T16:01:50;7.67;;;2.77;;
22814;SDS011;11574;51.058;13.712;2024-02-21T16:06:53;9.47;;;3.40;;
22814;SDS011;11574;51.058;13.712;2024-02-21T16:11:56;8.47;;;3.23;;
22814;SDS011;11574;51.058;13.712;2024-02-21T16:16:58;9.13;;;3.00;;
22814;SDS011;11574;51.058;13.712;2024-02-21T16:22:02;11.97;;;3.80;;
22814;SDS011;11574;51.058;13.712;2024-02-21T16:27:05;9.53;;;3.23;;
22814;SDS011;11574;51.058;13.712;2024-02-21T16:32:09;8.97;;;3.47;;
22814;SDS011;11574;51.058;13.712;2024-02-21T16:37:13;19.60;;;9.33;;
22814;SDS011;11574;51.058;13.712;2024-02-21T16:42:15;13.73;;;3.77;;
22814;SDS011;11574;51.058;13.712;2024-02-21T16:47:18;12.57;;;5.00;;
22814;SDS011;11574;51.058;13.712;2024-02-21T16:52:21;11.00;;;3.40;;
22814;SDS011;11574;51.058;13.712;2024-02-21T16:57:24;12.13;;;4.10;;
22814;SDS011;11574;51.058;13.712;2024-02-21T17:02:26;10.97;;;3.40;;
22814;SDS011;11574;51.058;13.712;2024-02-21T17:07:30;15.83;;;4.33;;
22814;SDS011;11574;51.058;13.712;2024-02-21T17:12:32;13.30;;;4.47;;
22814;SDS011;11574;51.058;13.712;2024-02-21T17:17:36;11.63;;;4.17;;
22814;SDS011;11574;51.058;13.712;2024-02-21T17:22:40;12.40;;;4.53;;
22814;SDS011;11574;51.058;13.712;2024-02-21T17:27:42;10.50;;;5.00;;
22814;SDS011;11574;51.058;13.712;2024-02-21T17:32:45;11.70;;;4.77;;
22814;SDS011;11574;51.058;13.712;2024-02-21T17:37:48;12.17;;;5.20;;
22814;SDS011;11574;51.058;13.712;2024-02-21T17:42:51;16.83;;;4.77;;
22814;SDS011;11574;51.058;13.712;2024-02-21T17:47:53;13.97;;;5.00;;
22814;SDS011;11574;51.058;13.712;2024-02-21T17:52:56;15.00;;;5.23;;
22814;SDS011;11574;51.058;13.712;2024-02-21T17:58:00;14.67;;;6.13;;
22814;SDS011;11574;51.058;13.712;2024-02-21T18:03:03;17.77;;;5.73;;
22814;SDS011;11574;51.058;13.712;2024-02-21T18:08:07;14.77;;;5.57;;
22814;SDS011;11574;51.058;13.712;2024-02-21T18:13:10;24.73;;;8.93;;
22814;SDS011;11574;51.058;13.712;2024-02-21T18:18:12;25.50;;;7.90;;
22814;SDS011;11574;51.058;13.712;2024-02-21T18:23:16;14.10;;;5.77;;
22814;SDS011;11574;51.058;13.712;2024-02-21T18:28:18;18.03;;;6.83;;
22814;SDS011;11574;51.058;13.712;2024-02-21T18:33:21;16.50;;;6.60;;
22814;SDS011;11574;51.058;13.712;2024-02-21T18:38:25;21.23;;;7.67;;
22814;SDS011;11574;51.058;13.712;2024-02-21T18:43:31;16.90;;;6.63;;
22814;SDS011;11574;51.058;13.712;2024-02-21T18:48:33;20.03;;;8.00;;
22814;SDS011;11574;51.058;13.712;2024-02-21T18:53:37;18.43;;;7.57;;
22814;SDS011;11574;51.058;13.712;2024-02-21T18:58:39;16.83;;;7.33;;
22814;SDS011;11574;51.058;13.712;2024-02-21T19:03:42;15.07;;;7.43;;
22814;SDS011;11574;51.058;13.712;2024-02-21T19:08:46;20.90;;;7.83;;
22814;SDS011;11574;51.058;13.712;2024-02-21T19:13:50;18.10;;;7.23;;
22814;SDS011;11574;51.058;13.712;2024-02-21T19:18:53;19.50;;;7.60;;
22814;SDS011;11574;51.058;13.712;2024-02-21T19:23:57;20.47;;;7.53;;
22814;SDS011;11574;51.058;13.712;2024-02-21T19:28:59;15.07;;;5.93;;
22814;SDS011;11574;51.058;13.712;2024-02-21T19:34:01;13.73;;;5.90;;
22814;SDS011;11574;51.058;13.712;2024-02-21T19:39:07;13.93;;;6.07;;
22814;SDS011;11574;51.058;13.712;2024-02-21T19:44:10;18.67;;;5.23;;
22814;SDS011;11574;51.058;13.712;2024-02-21T19:49:12;9.23;;;4.77;;
22814;SDS011;11574;51.058;13.712;2024-02-21T19:54:19;10.80;;;4.80;;
22814;SDS011;11574;51.058;13.712;2024-02-21T19:59:25;10.23;;;4.63;;
22814;SDS011;11574;51.058;13.712;2024-02-21T20:04:28;11.67;;;5.20;;
22814;SDS011;11574;51.058;13.712;2024-02-21T20:09:31;13.20;;;4.80;;
22814;SDS011;11574;51.058;13.712;2024-02-21T20:14:34;11.00;;;3.97;;
22814;SDS011;11574;51.058;13.712;2024-02-21T20:19:38;8.47;;;4.00;;
22814;SDS011;11574;51.058;13.712;2024-02-21T20:24:43;9.93;;;4.67;;
22814;SDS011;11574;51.058;13.712;2024-02-21T20:29:46;13.60;;;5.60;;
22814;SDS011;11574;51.058;13.712;2024-02-21T20:34:48;12.43;;;4.60;;
22814;SDS011;11574;51.058;13.712;2024-02-21T20:39:52;14.80;;;4.77;;
22814;SDS011;11574;51.058;13.712;2024-02-21T20:44:54;61.87;;;20.80;;
22814;SDS011;11574;51.058;13.712;2024-02-21T20:49:56;25.70;;;9.07;;
22814;SDS011;11574;51.058;13.712;2024-02-21T20:55:00;29.17;;;9.87;;
22814;SDS011;11574;51.058;13.712;2024-02-21T21:00:08;18.23;;;6.00;;
22814;SDS011;11574;51.058;13.712;2024-02-21T21:05:17;18.67;;;6.37;;
22814;SDS011;11574;51.058;13.712;2024-02-21T21:10:20;11.00;;;4.87;;
22814;SDS011;11574;51.058;13.712;2024-02-21T21:15:23;10.30;;;3.53;;
22814;SDS011;11574;51.058;13.712;2024-02-21T21:20:28;9.07;;;3.57;;
22814;SDS011;11574;51.058;13.712;2024-02-21T21:25:33;9.70;;;4.30;;
22814;SDS011;11574;51.058;13.712;2024-02-21T21:30:37;10.73;;;3.73;;
22814;SDS011;11574;51.058;13.712;2024-02-21T21:35:39;8.23;;;3.60;;
22814;SDS011;11574;51.058;13.712;2024-02-21T21:40:43;7.73;;;3.33;;
22814;SDS011;11574;51.058;13.712;2024-02-21T21:45:45;7.43;;;3.30;;
22814;SDS011;11574;51.058;13.712;2024-02-21T21:50:48;8.70;;;2.93;;
22814;SDS011;11574;51.058;13.712;2024-02-21T21:55:51;8.63;;;3.07;;
22814;SDS011;11574;51.058;13.712;2024-02-21T22:00:53;12.57;;;3.43;;
22814;SDS011;11574;51.058;13.712;2024-02-21T22:05:56;19.70;;;7.70;;
22814;SDS011;11574;51.058;13.712;2024-02-21T22:10:59;15.53;;;6.23;;
22814;SDS011;11574;51.058;13.712;2024-02-21T22:16:02;8.90;;;3.53;;
22814;SDS011;11574;51.058;13.712;2024-02-21T22:21:05;10.70;;;4.67;;
22814;SDS011;11574;51.058;13.712;2024-02-21T22:26:08;12.03;;;4.00;;
22814;SDS011;11574;51.058;13.712;2024-02-21T22:31:12;7.10;;;3.37;;
22814;SDS011;11574;51.058;13.712;2024-02-21T22:36:14;11.50;;;3.63;;
22814;SDS011;11574;51.058;13.712;2024-02-21T22:41:18;7.67;;;2.70;;
22814;SDS011;11574;51.058;13.712;2024-02-21T22:46:21;6.67;;;2.57;;
22814;SDS011;11574;51.058;13.712;2024-02-21T22:51:23;4.83;;;2.40;;
22814;SDS011;11574;51.058;13.712;2024-02-21T22:56:26;4.97;;;2.30;;
22814;SDS011;11574;51.058;13.712;2024-02-21T23:01:29;11.10;;;3.37;;
22814;SDS011;11574;51.058;13.712;2024-02-21T23:06:31;18.47;;;7.17;;
22814;SDS011;11574;51.058;13.712;2024-02-21T23:11:35;16.83;;;4.03;;
22814;SDS011;11574;51.058;13.712;2024-02-21T23:16:37;37.13;;;12.83;;
22814;SDS011;11574;51.058;13.712;2024-02-21T23:21:39;19.53;;;7.27;;
22814;SDS011;11574;51.058;13.712;2024-02-21T23:26:43;8.37;;;3.60;;
22814;SDS011;11574;51.058;13.712;2024-02-21T23:31:45;14.67;;;5.87;;
22814;SDS011;11574;51.058;13.712;2024-02-21T23:36:47;10.70;;;4.53;;
22814;SDS011;11574;51.058;13.712;2024-02-21T23:41:51;5.30;;;2.43;;
22814;SDS011;11574;51.058;13.712;2024-02-21T23:46:53;7.07;;;3.10;;
22814;SDS011;11574;51.058;13.712;2024-02-21T23:51:55;6.73;;;0.90;;
22814;SDS011;11574;51.058;13.712;2024-02-21T23:57:02;0.87;;;0.57;;
